Time;durP1;ratioP1;P1;durP2;ratioP2;P2;SDS_P1;SDS_P2;PMS_P1;PMS_P2;Temp;Humidity;BMP_temperature;BMP_pressure;BME280_temperature;BME280_humidity;BME280_pressure;Samples;Min_cycle;Max_cycle;Signal;HPM_P1;HPM_P2
2021/10/19 00:01:59;;;;;;;25.80;13.27;;;8.00;99.90;;;;;;5269758;28;20661;-67
2021/10/19 00:04:31;;;;;;;25.50;13.47;;;8.00;99.90;;;;;;5270807;28;20223;-63
2021/10/19 00:07:03;;;;;;;28.20;13.93;;;8.00;99.90;;;;;;5269914;28;20620;-63
2021/10/19 00:09:35;;;;;;;30.20;14.67;;;8.00;99.90;;;;;;5270710;28;20540;-65
2021/10/19 00:12:10;;;;;;;34.93;16.50;;;8.00;99.90;;;;;;5270815;28;20214;-67
2021/10/19 00:14:44;;;;;;;34.10;17.57;;;8.00;99.90;;;;;;5270339;28;20242;-65
2021/10/19 00:17:16;;;;;;;37.17;19.40;;;8.00;99.90;;;;;;5270097;28;20614;-67
2021/10/19 00:19:50;;;;;;;43.20;20.20;;;8.00;99.90;;;;;;5270403;28;20289;-63
2021/10/19 00:22:22;;;;;;;42.13;19.93;;;7.90;99.90;;;;;;5270647;28;20223;-63
2021/10/19 00:24:54;;;;;;;41.67;21.63;;;7.90;99.90;;;;;;5269204;28;20232;-63
2021/10/19 00:27:29;;;;;;;40.17;18.23;;;8.00;99.90;;;;;;5270577;28;20523;-62
2021/10/19 00:30:03;;;;;;;27.23;13.43;;;7.90;99.90;;;;;;5270872;28;20511;-65
2021/10/19 00:32:35;;;;;;;30.43;15.80;;;7.90;99.90;;;;;;5270177;28;20199;-63
2021/10/19 00:35:08;;;;;;;29.97;15.23;;;7.80;99.90;;;;;;5270525;28;20239;-63
2021/10/19 00:37:40;;;;;;;29.03;15.13;;;7.80;99.90;;;;;;5270893;28;20192;-66
2021/10/19 00:40:15;;;;;;;33.20;16.17;;;7.70;99.90;;;;;;5269162;28;20247;-64
2021/10/19 00:42:47;;;;;;;24.20;12.63;;;7.60;99.90;;;;;;5269474;28;20229;-60
2021/10/19 00:45:21;;;;;;;27.43;13.17;;;7.60;99.90;;;;;;5269866;28;20232;-62
2021/10/19 00:47:53;;;;;;;25.77;12.63;;;7.60;99.90;;;;;;5269707;28;20639;-66
2021/10/19 00:50:25;;;;;;;24.43;12.80;;;7.60;99.90;;;;;;5270086;28;20208;-63
2021/10/19 00:52:58;;;;;;;22.87;12.23;;;7.60;99.90;;;;;;5271478;28;20235;-66
2021/10/19 00:55:32;;;;;;;23.57;12.70;;;7.60;99.90;;;;;;5271102;28;20219;-65
2021/10/19 00:58:06;;;;;;;27.53;14.50;;;7.60;99.90;;;;;;5270491;28;20199;-62
2021/10/19 01:00:43;;;;;;;25.77;13.13;;;7.60;99.90;;;;;;5270352;28;20215;-65
2021/10/19 01:03:15;;;;;;;27.30;13.30;;;7.60;99.90;;;;;;5270444;28;20576;-62
2021/10/19 01:05:47;;;;;;;26.13;13.63;;;7.60;99.90;;;;;;5269931;28;20224;-63
2021/10/19 01:08:21;;;;;;;25.17;12.47;;;7.60;99.90;;;;;;5270212;28;20199;-61
2021/10/19 01:10:58;;;;;;;30.93;13.70;;;7.60;99.90;;;;;;5269669;28;20231;-64
2021/10/19 01:13:31;;;;;;;29.00;14.43;;;7.60;99.90;;;;;;5269683;28;20223;-63
2021/10/19 01:16:11;;;;;;;27.77;14.10;;;7.60;99.90;;;;;;5269797;28;20204;-63
2021/10/19 01:18:43;;;;;;;24.07;13.07;;;7.60;99.90;;;;;;5269671;28;20653;-62
2021/10/19 01:21:15;;;;;;;25.40;12.63;;;7.70;99.90;;;;;;5269541;28;20561;-61
2021/10/19 01:23:47;;;;;;;23.60;13.53;;;7.70;99.90;;;;;;5268489;28;20215;-62
2021/10/19 01:26:19;;;;;;;27.87;12.93;;;7.70;99.90;;;;;;5269947;28;20219;-63
2021/10/19 01:28:51;;;;;;;24.43;12.07;;;7.70;99.90;;;;;;5270023;28;20628;-61
2021/10/19 01:31:23;;;;;;;22.13;12.20;;;7.70;99.90;;;;;;5269827;28;20211;-62
2021/10/19 01:33:57;;;;;;;23.87;12.07;;;7.70;99.90;;;;;;5270421;28;20312;-66
2021/10/19 01:36:29;;;;;;;22.33;11.37;;;7.70;99.90;;;;;;5269552;28;20479;-65
2021/10/19 01:39:05;;;;;;;23.63;11.30;;;7.70;99.90;;;;;;5270585;28;20599;-63
2021/10/19 01:41:37;;;;;;;22.00;11.37;;;7.70;99.90;;;;;;5269638;28;20188;-63
2021/10/19 01:44:09;;;;;;;20.50;10.70;;;7.70;99.90;;;;;;5269433;28;20208;-59
2021/10/19 01:46:41;;;;;;;20.03;10.23;;;7.70;99.90;;;;;;5268483;28;20220;-65
2021/10/19 01:49:13;;;;;;;18.60;10.73;;;7.70;99.90;;;;;;5269319;28;20201;-66
2021/10/19 01:51:45;;;;;;;21.87;10.77;;;7.70;99.90;;;;;;5269994;28;20200;-66
2021/10/19 01:54:19;;;;;;;20.10;10.20;;;7.70;99.90;;;;;;5273080;28;20319;-62
2021/10/19 01:56:51;;;;;;;15.70;9.63;;;7.80;99.90;;;;;;5272411;28;20618;-66
2021/10/19 01:59:26;;;;;;;18.50;10.37;;;7.70;99.90;;;;;;5273322;28;20204;-61
2021/10/19 02:01:58;;;;;;;21.43;10.17;;;7.70;99.90;;;;;;5272024;28;20321;-61
2021/10/19 02:04:30;;;;;;;17.40;10.37;;;7.70;99.90;;;;;;5273219;28;20208;-65
2021/10/19 02:07:04;;;;;;;21.50;11.17;;;7.80;99.90;;;;;;5273111;28;20231;-64
2021/10/19 02:09:36;;;;;;;20.07;10.80;;;7.80;99.90;;;;;;5272502;28;20236;-65
2021/10/19 02:12:08;;;;;;;19.93;10.73;;;7.70;99.90;;;;;;5273063;28;20596;-62
2021/10/19 02:14:40;;;;;;;23.03;11.60;;;7.80;99.90;;;;;;5272659;28;20235;-63
2021/10/19 02:17:12;;;;;;;19.37;10.37;;;7.70;99.90;;;;;;5272954;28;20269;-63
2021/10/19 02:19:46;;;;;;;21.03;11.17;;;7.70;99.90;;;;;;5273941;28;20682;-66
2021/10/19 02:22:20;;;;;;;22.67;11.67;;;7.70;99.90;;;;;;5273215;28;20234;-63
2021/10/19 02:24:53;;;;;;;22.03;11.43;;;7.70;99.90;;;;;;5272591;28;20246;-65
2021/10/19 02:27:25;;;;;;;23.20;12.03;;;7.70;99.90;;;;;;5272157;28;20200;-63
2021/10/19 02:29:57;;;;;;;23.30;12.57;;;7.60;99.90;;;;;;5272170;28;20674;-63
2021/10/19 02:32:29;;;;;;;28.50;14.07;;;7.60;99.90;;;;;;5272373;28;20206;-62
2021/10/19 02:35:03;;;;;;;28.07;14.13;;;7.60;99.90;;;;;;5272594;28;20224;-68
2021/10/19 02:37:35;;;;;;;29.97;15.33;;;7.60;99.90;;;;;;5272379;28;20221;-65
2021/10/19 02:40:09;;;;;;;32.10;16.00;;;7.60;99.90;;;;;;5271595;28;20228;-65
2021/10/19 02:42:46;;;;;;;30.83;15.90;;;7.60;99.90;;;;;;5272924;28;20216;-64
2021/10/19 02:45:18;;;;;;;31.70;15.90;;;7.60;99.90;;;;;;5272548;28;20231;-65
2021/10/19 02:47:50;;;;;;;31.57;15.37;;;7.50;99.90;;;;;;5272390;28;20199;-62
2021/10/19 02:50:23;;;;;;;28.87;15.80;;;7.50;99.90;;;;;;5271871;28;20234;-67
2021/10/19 02:52:55;;;;;;;33.43;16.30;;;7.50;99.90;;;;;;5272847;28;20215;-64
2021/10/19 02:55:27;;;;;;;28.27;15.70;;;7.50;99.90;;;;;;5272451;28;20224;-65
2021/10/19 02:57:59;;;;;;;28.27;16.37;;;7.50;99.90;;;;;;5271256;28;20238;-65
2021/10/19 03:00:31;;;;;;;30.40;15.70;;;7.50;99.90;;;;;;5272732;28;20236;-68
2021/10/19 03:03:03;;;;;;;30.70;16.27;;;7.50;99.90;;;;;;5272081;28;20222;-65
2021/10/19 03:05:35;;;;;;;29.00;16.07;;;7.50;99.90;;;;;;5271124;28;20228;-66
2021/10/19 03:08:07;;;;;;;29.00;15.73;;;7.50;99.90;;;;;;5270865;28;20215;-65
2021/10/19 03:10:39;;;;;;;29.83;16.67;;;7.50;99.90;;;;;;5271775;28;20224;-67
2021/10/19 03:13:13;;;;;;;28.87;15.10;;;7.50;99.90;;;;;;5254079;28;20207;-65
2021/10/19 03:15:47;;;;;;;30.40;17.00;;;7.50;99.90;;;;;;5271867;28;20228;-64
2021/10/19 03:18:24;;;;;;;29.80;16.70;;;7.50;99.90;;;;;;5271714;28;20232;-63
2021/10/19 03:20:58;;;;;;;29.77;16.47;;;7.50;99.90;;;;;;5271880;28;20238;-67
2021/10/19 03:23:32;;;;;;;29.53;16.07;;;7.40;99.90;;;;;;5271808;28;20210;-66
2021/10/19 03:26:04;;;;;;;33.33;17.77;;;7.40;99.90;;;;;;5271164;28;20243;-63
2021/10/19 03:28:36;;;;;;;28.60;16.13;;;7.40;99.90;;;;;;5271448;28;20641;-63
2021/10/19 03:31:08;;;;;;;30.53;16.17;;;7.40;99.90;;;;;;5271443;28;20247;-66
2021/10/19 03:33:41;;;;;;;25.90;15.23;;;7.40;99.90;;;;;;5272058;28;20199;-65
2021/10/19 03:36:13;;;;;;;34.60;16.80;;;7.40;99.90;;;;;;5271162;28;20236;-66
2021/10/19 03:38:45;;;;;;;31.57;18.23;;;7.40;99.90;;;;;;5271546;28;20505;-66
2021/10/19 03:41:20;;;;;;;28.70;16.47;;;7.40;99.90;;;;;;5271668;28;20687;-63
2021/10/19 03:43:54;;;;;;;31.90;17.37;;;7.40;99.90;;;;;;5271017;28;20211;-63
2021/10/19 03:46:29;;;;;;;30.57;17.90;;;7.40;99.90;;;;;;5270979;28;20247;-65
2021/10/19 03:49:03;;;;;;;30.40;17.03;;;7.40;99.90;;;;;;5271549;28;20489;-66
2021/10/19 03:51:37;;;;;;;27.80;17.17;;;7.40;99.90;;;;;;5271931;28;20242;-65
2021/10/19 03:54:09;;;;;;;30.43;16.80;;;7.40;99.90;;;;;;5271466;28;20561;-65
2021/10/19 03:56:41;;;;;;;26.77;16.90;;;7.40;99.90;;;;;;5270780;28;20246;-68
2021/10/19 03:59:13;;;;;;;30.87;16.40;;;7.40;99.90;;;;;;5270709;28;20204;-67
2021/10/19 04:01:45;;;;;;;29.70;16.67;;;7.40;99.90;;;;;;5270882;28;20236;-66
2021/10/19 04:04:19;;;;;;;30.47;16.53;;;7.40;99.90;;;;;;5269868;28;20203;-68
2021/10/19 04:06:51;;;;;;;30.83;16.37;;;7.40;99.90;;;;;;5270215;28;20236;-69
2021/10/19 04:09:23;;;;;;;27.83;15.87;;;7.40;99.90;;;;;;5269496;28;20200;-66
2021/10/19 04:11:55;;;;;;;31.50;16.63;;;7.40;99.90;;;;;;5270736;28;20228;-67
2021/10/19 04:14:27;;;;;;;29.73;16.60;;;7.40;99.90;;;;;;5269665;28;20245;-66
2021/10/19 04:16:59;;;;;;;28.63;16.67;;;7.40;99.90;;;;;;5269185;28;20223;-67
2021/10/19 04:19:33;;;;;;;28.43;17.07;;;7.40;99.90;;;;;;5270394;28;20242;-66
2021/10/19 04:22:05;;;;;;;29.13;16.73;;;7.40;99.90;;;;;;5270165;28;20207;-64
2021/10/19 04:24:37;;;;;;;28.23;15.63;;;7.40;99.90;;;;;;5270342;28;20199;-65
2021/10/19 04:27:11;;;;;;;28.50;16.87;;;7.30;99.90;;;;;;5270258;28;20696;-64
2021/10/19 04:29:44;;;;;;;29.90;16.40;;;7.30;99.90;;;;;;5270333;28;20192;-63
2021/10/19 04:32:18;;;;;;;29.73;16.47;;;7.30;99.90;;;;;;5270445;28;20211;-61
2021/10/19 04:34:50;;;;;;;31.70;17.03;;;7.30;99.90;;;;;;5270198;28;20199;-64
2021/10/19 04:37:27;;;;;;;28.07;15.70;;;7.30;99.90;;;;;;5270614;28;20203;-63
2021/10/19 04:40:02;;;;;;;28.33;15.03;;;7.30;99.90;;;;;;5270712;28;20196;-63
2021/10/19 04:42:37;;;;;;;29.77;15.77;;;7.30;99.90;;;;;;5269856;28;20236;-65
2021/10/19 04:45:09;;;;;;;27.80;15.57;;;7.30;99.90;;;;;;5270049;28;20230;-67
2021/10/19 04:47:44;;;;;;;34.80;17.30;;;7.30;99.90;;;;;;5270389;28;20533;-65
2021/10/19 04:50:16;;;;;;;35.53;19.17;;;7.40;99.90;;;;;;5270141;28;20203;-63
2021/10/19 04:52:48;;;;;;;35.37;17.87;;;7.40;99.90;;;;;;5269011;28;20258;-60
2021/10/19 04:55:20;;;;;;;39.00;19.90;;;7.40;99.90;;;;;;5269918;28;20200;-61
2021/10/19 04:57:52;;;;;;;36.03;18.57;;;7.40;99.90;;;;;;5269670;28;20204;-60
2021/10/19 05:00:24;;;;;;;33.50;17.73;;;7.40;99.90;;;;;;5269008;28;20321;-65
2021/10/19 05:03:00;;;;;;;34.27;17.73;;;7.40;99.90;;;;;;5268588;28;20204;-68
2021/10/19 05:05:35;;;;;;;36.70;19.03;;;7.40;99.90;;;;;;5269006;28;20285;-63
2021/10/19 05:08:07;;;;;;;36.50;18.13;;;7.40;99.90;;;;;;5269819;28;20215;-60
2021/10/19 05:10:39;;;;;;;35.03;18.17;;;7.40;99.90;;;;;;5268630;28;20242;-66
2021/10/19 05:13:12;;;;;;;33.97;19.53;;;7.40;99.90;;;;;;5270134;28;20256;-67
2021/10/19 05:15:46;;;;;;;38.13;19.63;;;7.40;99.90;;;;;;5269791;28;20208;-66
2021/10/19 05:18:19;;;;;;;41.37;19.27;;;7.40;99.90;;;;;;5269878;28;20191;-64
2021/10/19 05:20:54;;;;;;;39.80;20.43;;;7.40;99.90;;;;;;5262571;28;20241;-66
2021/10/19 05:23:26;;;;;;;36.73;19.77;;;7.40;99.90;;;;;;5263104;28;20291;-69
2021/10/19 05:25:59;;;;;;;34.53;19.50;;;7.40;99.90;;;;;;5255623;28;20213;-66
2021/10/19 05:28:32;;;;;;;34.97;21.20;;;7.40;99.90;;;;;;5251649;28;20203;-65
2021/10/19 05:31:04;;;;;;;45.23;23.77;;;7.40;99.90;;;;;;5252824;28;20220;-63
2021/10/19 05:33:36;;;;;;;37.47;21.63;;;7.40;99.90;;;;;;5254133;28;20196;-64
2021/10/19 05:36:08;;;;;;;43.70;22.80;;;7.40;99.90;;;;;;5258028;28;20221;-65
2021/10/19 05:38:43;;;;;;;43.03;23.83;;;7.40;99.90;;;;;;5255420;28;20215;-63
2021/10/19 05:41:16;;;;;;;51.23;26.33;;;7.40;99.90;;;;;;5261083;28;20230;-63
2021/10/19 05:43:50;;;;;;;60.27;28.07;;;7.40;99.90;;;;;;5254738;28;20208;-64
2021/10/19 05:46:25;;;;;;;70.10;31.03;;;7.40;99.90;;;;;;5253229;28;20235;-62
2021/10/19 05:48:57;;;;;;;62.10;29.23;;;7.40;99.90;;;;;;5273518;28;20195;-63
2021/10/19 05:51:34;;;;;;;50.60;25.80;;;7.40;99.90;;;;;;5273264;28;20239;-67
2021/10/19 05:54:06;;;;;;;45.03;24.97;;;7.50;99.90;;;;;;5255360;28;20193;-63
2021/10/19 05:56:40;;;;;;;42.40;23.97;;;7.40;99.90;;;;;;5251519;28;20219;-65
2021/10/19 05:59:12;;;;;;;41.40;23.50;;;7.50;99.90;;;;;;5251204;28;20213;-62
2021/10/19 06:01:46;;;;;;;43.47;23.03;;;7.40;99.90;;;;;;5251396;28;20228;-63
2021/10/19 06:04:18;;;;;;;40.57;21.63;;;7.50;99.90;;;;;;5251795;28;20212;-65
2021/10/19 06:06:54;;;;;;;38.67;22.10;;;7.50;99.90;;;;;;5250611;28;20244;-63
2021/10/19 06:09:27;;;;;;;45.37;24.13;;;7.50;99.90;;;;;;5251552;28;20240;-61
2021/10/19 06:12:00;;;;;;;40.37;21.70;;;7.50;99.90;;;;;;5252214;28;20255;-62
2021/10/19 06:14:35;;;;;;;39.77;22.47;;;7.50;99.90;;;;;;5251282;28;20196;-68
2021/10/19 06:17:07;;;;;;;38.43;21.20;;;7.50;99.90;;;;;;5252087;28;20233;-65
2021/10/19 06:19:41;;;;;;;35.43;19.67;;;7.50;99.90;;;;;;5251689;28;20205;-63
2021/10/19 06:22:13;;;;;;;34.00;19.53;;;7.50;99.90;;;;;;5252271;28;20239;-65
2021/10/19 06:24:45;;;;;;;32.07;18.60;;;7.50;99.90;;;;;;5250802;28;20201;-64
2021/10/19 06:27:17;;;;;;;29.93;18.53;;;7.50;99.90;;;;;;5251467;28;20682;-63
2021/10/19 06:29:49;;;;;;;30.47;19.30;;;7.50;99.90;;;;;;5250458;28;20193;-68
2021/10/19 06:32:21;;;;;;;31.80;19.13;;;7.60;99.90;;;;;;5251395;28;20229;-65
2021/10/19 06:34:57;;;;;;;35.30;18.63;;;7.60;99.90;;;;;;5251708;28;20205;-68
2021/10/19 06:37:29;;;;;;;32.27;18.70;;;7.60;99.90;;;;;;5250275;28;20244;-67
2021/10/19 06:40:01;;;;;;;32.97;19.57;;;7.60;99.90;;;;;;5251099;28;20211;-62
2021/10/19 06:42:34;;;;;;;29.33;16.83;;;7.60;99.90;;;;;;5251262;28;20229;-62
2021/10/19 06:45:12;;;;;;;28.43;16.40;;;7.70;99.90;;;;;;5251206;28;20200;-63
2021/10/19 06:47:44;;;;;;;29.40;17.10;;;7.70;99.90;;;;;;5251698;28;20532;-63
2021/10/19 06:50:16;;;;;;;26.37;15.53;;;7.70;99.90;;;;;;5251557;28;20200;-62
2021/10/19 06:52:48;;;;;;;29.37;15.33;;;7.80;99.90;;;;;;5251090;28;20229;-65
2021/10/19 06:55:22;;;;;;;26.27;15.70;;;7.80;99.90;;;;;;5250217;28;20204;-61
2021/10/19 06:57:55;;;;;;;27.50;15.23;;;7.80;99.90;;;;;;5250955;28;20224;-64
2021/10/19 07:00:29;;;;;;;26.43;14.80;;;7.90;99.90;;;;;;5251291;28;20231;-62
2021/10/19 07:03:04;;;;;;;29.47;16.17;;;8.00;99.90;;;;;;5251043;28;20293;-66
2021/10/19 07:05:36;;;;;;;26.03;15.80;;;8.00;99.90;;;;;;5250806;28;20526;-66
2021/10/19 07:08:07;;;;;;;26.07;15.13;;;8.10;99.90;;;;;;5250705;28;20241;-64
2021/10/19 07:10:40;;;;;;;27.43;13.30;;;8.10;99.90;;;;;;5250506;28;20571;-62
2021/10/19 07:13:12;;;;;;;27.50;13.73;;;8.10;99.90;;;;;;5251022;28;20216;-62
2021/10/19 07:15:44;;;;;;;18.10;12.07;;;8.10;99.90;;;;;;5250921;28;20211;-68
2021/10/19 07:18:16;;;;;;;18.87;11.80;;;8.10;99.90;;;;;;5250125;28;20209;-62
2021/10/19 07:20:49;;;;;;;20.97;13.13;;;8.10;99.90;;;;;;5249601;28;20615;-63
2021/10/19 07:23:22;;;;;;;24.17;13.33;;;8.20;99.90;;;;;;5249508;28;20204;-68
2021/10/19 07:25:54;;;;;;;26.00;13.67;;;8.20;99.90;;;;;;5250637;28;20204;-65
2021/10/19 07:28:26;;;;;;;22.43;12.93;;;8.20;99.90;;;;;;5250390;28;20220;-63
2021/10/19 07:30:58;;;;;;;24.57;14.33;;;8.30;99.90;;;;;;5250727;28;20621;-67
2021/10/19 07:33:32;;;;;;;24.43;14.13;;;8.30;99.90;;;;;;5250951;28;20201;-67
2021/10/19 07:36:04;;;;;;;23.23;14.20;;;8.30;99.90;;;;;;5250697;28;20200;-65
2021/10/19 07:38:39;;;;;;;25.40;14.00;;;8.40;99.90;;;;;;5250274;28;20208;-65
2021/10/19 07:41:13;;;;;;;28.70;14.00;;;8.40;99.90;;;;;;5250291;28;20262;-65
2021/10/19 07:43:45;;;;;;;28.87;14.60;;;8.40;99.90;;;;;;5249730;28;20196;-65
2021/10/19 07:46:17;;;;;;;28.67;15.43;;;8.50;99.90;;;;;;5249757;28;20667;-62
2021/10/19 07:48:49;;;;;;;30.23;15.03;;;8.60;99.90;;;;;;5249918;28;20205;-65
2021/10/19 07:51:21;;;;;;;27.40;15.40;;;8.60;99.90;;;;;;5248540;28;20201;-64
2021/10/19 07:53:58;;;;;;;31.30;15.57;;;8.70;99.90;;;;;;5250208;28;20262;-64
2021/10/19 07:56:34;;;;;;;28.50;15.30;;;8.70;99.90;;;;;;5250471;28;20292;-65
2021/10/19 07:59:06;;;;;;;28.77;14.43;;;8.70;99.90;;;;;;5250064;28;20209;-65
2021/10/19 08:01:41;;;;;;;28.97;14.00;;;8.70;99.90;;;;;;5250214;28;20308;-63
2021/10/19 08:04:13;;;;;;;28.73;15.20;;;8.70;99.90;;;;;;5250044;28;20199;-65
2021/10/19 08:06:45;;;;;;;23.43;13.77;;;8.70;99.90;;;;;;5249604;28;20236;-65
2021/10/19 08:09:17;;;;;;;25.67;14.97;;;8.70;99.90;;;;;;5249925;28;20197;-65
2021/10/19 08:11:49;;;;;;;26.60;14.73;;;8.70;99.90;;;;;;5249772;28;20551;-67
2021/10/19 08:14:26;;;;;;;25.13;14.13;;;8.70;99.90;;;;;;5250012;28;20321;-67
2021/10/19 08:16:58;;;;;;;28.63;15.30;;;8.70;99.90;;;;;;5249802;28;20235;-65
2021/10/19 08:19:33;;;;;;;32.30;15.80;;;8.70;99.90;;;;;;5249472;28;20240;-61
2021/10/19 08:22:05;;;;;;;29.33;16.03;;;8.70;99.90;;;;;;5249404;28;20239;-66
2021/10/19 08:24:36;;;;;;;29.83;15.03;;;8.80;99.90;;;;;;5249462;28;20201;-65
2021/10/19 08:27:08;;;;;;;27.70;15.83;;;8.80;99.90;;;;;;5249669;28;20244;-63
2021/10/19 08:29:40;;;;;;;28.50;16.40;;;8.80;99.90;;;;;;5248789;28;20644;-67
2021/10/19 08:32:25;;;;;;;31.03;16.13;;;8.90;99.90;;;;;;5249665;28;20242;-66
2021/10/19 08:34:57;;;;;;;30.10;15.30;;;8.90;99.90;;;;;;5249563;28;20184;-60
2021/10/19 08:37:29;;;;;;;30.93;15.67;;;9.00;99.90;;;;;;5249756;28;20240;-65
2021/10/19 08:40:02;;;;;;;31.00;16.93;;;9.00;99.90;;;;;;5249334;28;20220;-69
2021/10/19 08:42:45;;;;;;;31.63;15.93;;;9.00;99.90;;;;;;5249400;28;20244;-69
2021/10/19 08:45:17;;;;;;;30.77;16.23;;;9.00;99.90;;;;;;5249006;28;20192;-63
2021/10/19 08:47:54;;;;;;;31.70;16.97;;;9.00;99.90;;;;;;5249250;28;20225;-62
2021/10/19 08:50:27;;;;;;;31.63;16.23;;;9.10;99.90;;;;;;5248098;28;20212;-65
2021/10/19 08:52:59;;;;;;;27.43;15.67;;;9.10;99.90;;;;;;5249231;28;20600;-65
2021/10/19 08:55:34;;;;;;;30.07;15.43;;;9.20;99.90;;;;;;5248523;28;20612;-65
2021/10/19 08:58:14;;;;;;;30.00;16.33;;;9.20;99.90;;;;;;5249211;28;20552;-64
2021/10/19 09:00:46;;;;;;;34.63;16.73;;;9.20;99.90;;;;;;5249197;28;20627;-66
2021/10/19 09:03:22;;;;;;;34.17;16.70;;;9.20;99.90;;;;;;5250740;28;20289;-63
2021/10/19 09:05:55;;;;;;;31.37;16.63;;;9.30;99.90;;;;;;5252811;28;20552;-64
2021/10/19 09:08:27;;;;;;;37.47;18.17;;;9.30;99.90;;;;;;5253705;28;20552;-62
2021/10/19 09:10:59;;;;;;;35.20;17.93;;;9.30;99.90;;;;;;5253194;28;20247;-63
2021/10/19 09:13:31;;;;;;;30.93;17.03;;;9.30;99.90;;;;;;5252978;28;20221;-63
2021/10/19 09:16:05;;;;;;;30.87;16.73;;;9.40;99.90;;;;;;5253164;28;20201;-63
2021/10/19 09:18:39;;;;;;;34.10;17.13;;;9.40;99.90;;;;;;5252073;28;20228;-62
2021/10/19 09:21:26;;;;;;;35.67;18.17;;;9.50;99.90;;;;;;5253129;28;20200;-65
2021/10/19 09:24:25;;;;;;;34.47;18.27;;;9.50;99.90;;;;;;5253006;28;20239;-65
2021/10/19 09:27:11;;;;;;;33.33;17.57;;;9.70;99.90;;;;;;5251938;28;20229;-66
2021/10/19 09:29:48;;;;;;;33.43;17.37;;;9.80;99.90;;;;;;5251973;28;20224;-65
2021/10/19 09:32:23;;;;;;;36.30;18.33;;;10.00;99.90;;;;;;5251739;28;20723;-66
2021/10/19 09:34:57;;;;;;;36.53;19.20;;;10.10;99.90;;;;;;5252262;28;20196;-67
2021/10/19 09:37:30;;;;;;;34.33;19.13;;;10.20;99.90;;;;;;5252921;28;20628;-68
2021/10/19 09:40:09;;;;;;;34.77;19.30;;;10.20;99.90;;;;;;5252493;28;20239;-64
2021/10/19 09:42:41;;;;;;;36.47;19.10;;;10.20;99.90;;;;;;5252392;28;20220;-65
2021/10/19 09:45:13;;;;;;;35.00;18.97;;;10.20;99.90;;;;;;5252825;28;20240;-64
2021/10/19 09:47:45;;;;;;;35.80;19.03;;;10.10;99.90;;;;;;5252842;28;20247;-65
2021/10/19 09:50:17;;;;;;;40.00;20.10;;;10.10;99.90;;;;;;5251676;28;20225;-69
2021/10/19 09:52:50;;;;;;;41.87;22.80;;;10.00;99.90;;;;;;5251343;28;20221;-63
2021/10/19 09:55:23;;;;;;;37.20;19.90;;;10.00;99.90;;;;;;5252716;28;20225;-68
2021/10/19 09:57:57;;;;;;;36.83;19.23;;;10.10;99.90;;;;;;5252813;28;20213;-67
2021/10/19 10:00:34;;;;;;;35.80;19.07;;;10.00;99.90;;;;;;5252215;28;20244;-64
2021/10/19 10:03:06;;;;;;;41.63;20.90;;;10.10;99.90;;;;;;5231720;28;20239;-64
2021/10/19 10:05:42;;;;;;;36.13;20.50;;;10.10;99.90;;;;;;5242954;28;20233;-61
2021/10/19 10:08:20;;;;;;;35.17;19.80;;;10.00;99.90;;;;;;5251291;28;20254;-62
2021/10/19 10:10:57;;;;;;;35.53;19.57;;;10.00;99.90;;;;;;5251218;28;20258;-62
2021/10/19 10:13:29;;;;;;;36.17;19.07;;;10.00;99.90;;;;;;5251663;28;20208;-69
2021/10/19 10:16:12;;;;;;;41.83;22.07;;;10.00;99.90;;;;;;5252218;28;20342;-65
2021/10/19 10:18:44;;;;;;;34.53;20.23;;;10.00;99.90;;;;;;5252056;28;20205;-67
2021/10/19 10:21:22;;;;;;;46.07;22.60;;;10.00;99.90;;;;;;5252359;28;20588;-67
2021/10/19 10:24:02;;;;;;;41.10;20.97;;;10.00;99.90;;;;;;5250977;28;20212;-66
2021/10/19 10:26:35;;;;;;;39.60;20.93;;;10.00;99.90;;;;;;5251644;28;20247;-62
2021/10/19 10:29:08;;;;;;;36.90;20.60;;;10.00;99.90;;;;;;5252012;28;20193;-67
2021/10/19 10:31:52;;;;;;;42.50;22.10;;;10.10;99.90;;;;;;5252047;28;20229;-63
2021/10/19 10:34:32;;;;;;;40.37;22.10;;;10.20;99.90;;;;;;5251431;28;20201;-65
2021/10/19 10:37:11;;;;;;;42.13;23.03;;;10.20;99.90;;;;;;5250571;28;20251;-65
2021/10/19 10:39:49;;;;;;;48.53;25.23;;;10.20;99.90;;;;;;5251805;28;20216;-65
2021/10/19 10:42:21;;;;;;;46.00;24.07;;;10.20;99.90;;;;;;5251514;28;20706;-64
2021/10/19 10:44:53;;;;;;;46.90;24.00;;;10.20;99.90;;;;;;5250402;28;20209;-63
2021/10/19 10:47:28;;;;;;;50.57;24.30;;;10.20;99.90;;;;;;5251252;28;20233;-64
2021/10/19 10:50:03;;;;;;;46.07;24.43;;;10.20;99.90;;;;;;5251147;28;20206;-63
2021/10/19 10:52:34;;;;;;;51.20;26.13;;;10.20;99.90;;;;;;5250249;28;20214;-63
2021/10/19 10:55:15;;;;;;;53.50;26.93;;;10.20;99.90;;;;;;5251481;28;20219;-63
2021/10/19 10:57:47;;;;;;;49.90;26.63;;;10.30;99.90;;;;;;5250678;28;20224;-62
2021/10/19 11:00:24;;;;;;;53.83;27.77;;;10.30;99.90;;;;;;5251449;28;20205;-63
2021/10/19 11:03:14;;;;;;;60.30;29.77;;;10.40;99.90;;;;;;5250416;28;20225;-65
2021/10/19 11:06:00;;;;;;;63.40;31.53;;;10.40;99.90;;;;;;5249701;28;20256;-64
2021/10/19 11:08:36;;;;;;;61.70;30.57;;;10.50;99.90;;;;;;5250914;28;20220;-65
2021/10/19 11:11:18;;;;;;;61.70;31.20;;;10.50;99.90;;;;;;5250781;28;20243;-65
2021/10/19 11:13:57;;;;;;;68.47;31.47;;;10.50;99.90;;;;;;5250687;28;20221;-67
2021/10/19 11:16:39;;;;;;;60.47;29.13;;;10.60;99.90;;;;;;5251173;28;20599;-64
2021/10/19 11:19:31;;;;;;;61.03;31.13;;;10.70;99.90;;;;;;5250748;28;20238;-64
2021/10/19 11:22:07;;;;;;;61.07;30.60;;;10.80;99.90;;;;;;5250679;28;20212;-66
2021/10/19 11:24:39;;;;;;;60.53;31.77;;;10.90;99.90;;;;;;5250346;28;20541;-64
2021/10/19 11:27:18;;;;;;;55.33;31.37;;;11.00;99.90;;;;;;5249137;28;20239;-64
2021/10/19 11:29:52;;;;;;;58.03;30.70;;;11.00;99.90;;;;;;5250895;28;20261;-66
2021/10/19 11:32:26;;;;;;;62.60;30.97;;;11.10;99.90;;;;;;5250741;28;20633;-63
2021/10/19 11:34:58;;;;;;;56.77;30.97;;;11.30;99.90;;;;;;5249407;28;20221;-67
2021/10/19 11:37:32;;;;;;;55.50;31.13;;;11.40;99.90;;;;;;5250495;28;20209;-66
2021/10/19 11:40:08;;;;;;;53.17;30.03;;;11.60;99.90;;;;;;5250234;28;20241;-61
2021/10/19 11:42:52;;;;;;;61.97;31.90;;;11.90;99.90;;;;;;5249193;28;20193;-59
2021/10/19 11:45:26;;;;;;;52.67;31.40;;;12.30;99.90;;;;;;5250369;28;20205;-61
2021/10/19 11:48:05;;;;;;;50.93;29.80;;;12.50;99.90;;;;;;5249934;28;20270;-59
2021/10/19 11:50:40;;;;;;;52.60;30.73;;;12.60;99.90;;;;;;5250236;28;20201;-57
2021/10/19 11:53:15;;;;;;;52.73;30.83;;;12.70;99.90;;;;;;5250092;28;20185;-58
2021/10/19 11:55:53;;;;;;;51.90;31.43;;;12.70;99.90;;;;;;5250089;28;20527;-57
2021/10/19 11:58:30;;;;;;;50.97;30.00;;;12.80;99.90;;;;;;5249985;28;20208;-58
2021/10/19 12:01:02;;;;;;;50.03;29.70;;;13.00;99.90;;;;;;5250138;28;20580;-56
2021/10/19 12:03:36;;;;;;;47.00;27.80;;;13.10;99.90;;;;;;5249821;28;20209;-65
2021/10/19 12:06:12;;;;;;;49.77;28.97;;;13.20;99.90;;;;;;5249710;28;20205;-59
2021/10/19 12:08:44;;;;;;;41.03;27.97;;;13.00;99.90;;;;;;5249700;28;20228;-68
2021/10/19 12:11:21;;;;;;;42.50;28.37;;;12.80;99.90;;;;;;5249868;28;20237;-70
2021/10/19 12:13:57;;;;;;;45.27;28.97;;;12.70;99.90;;;;;;5250110;28;20491;-63
2021/10/19 12:16:32;;;;;;;46.07;28.90;;;12.50;99.90;;;;;;5250017;28;20185;-66
2021/10/19 12:19:04;;;;;;;48.97;30.63;;;12.30;99.90;;;;;;5250264;28;20273;-59
2021/10/19 12:21:51;;;;;;;53.30;31.43;;;12.10;99.90;;;;;;5249765;28;20245;-66
2021/10/19 12:24:24;;;;;;;48.07;29.77;;;12.00;99.90;;;;;;5249898;28;20304;-65
2021/10/19 12:27:02;;;;;;;56.00;31.90;;;12.00;99.90;;;;;;5248774;28;20227;-66
2021/10/19 12:29:36;;;;;;;50.23;31.40;;;12.00;99.90;;;;;;5249913;28;20204;-64
2021/10/19 12:32:08;;;;;;;55.83;32.97;;;12.00;99.90;;;;;;5249910;28;20212;-66
2021/10/19 12:34:42;;;;;;;54.53;31.87;;;12.10;99.90;;;;;;5249462;28;20200;-47
2021/10/19 12:37:14;;;;;;;50.23;33.07;;;12.10;99.90;;;;;;5249203;28;20205;-64
2021/10/19 12:39:48;;;;;;;51.93;32.73;;;12.20;99.90;;;;;;5250830;28;20205;-65
2021/10/19 12:42:20;;;;;;;55.27;33.23;;;12.20;99.90;;;;;;5249859;28;20221;-67
2021/10/19 12:44:52;;;;;;;54.03;32.03;;;12.30;99.90;;;;;;5249471;28;20216;-63
2021/10/19 12:47:24;;;;;;;57.93;34.10;;;12.30;99.90;;;;;;5249910;28;20254;-67
2021/10/19 12:49:59;;;;;;;49.27;32.63;;;12.40;99.90;;;;;;5248892;28;20215;-68
2021/10/19 12:52:31;;;;;;;51.53;32.43;;;12.40;99.90;;;;;;5249373;28;20224;-66
2021/10/19 12:55:04;;;;;;;55.50;32.73;;;12.40;99.90;;;;;;5249905;28;20212;-64
2021/10/19 12:57:35;;;;;;;50.17;32.83;;;12.40;99.90;;;;;;5249743;28;20228;-51
2021/10/19 13:00:09;;;;;;;52.33;33.27;;;12.40;99.90;;;;;;5248930;28;20208;-65
2021/10/19 13:02:42;;;;;;;47.70;30.17;;;12.40;99.90;;;;;;5249140;28;20232;-68
2021/10/19 13:05:14;;;;;;;48.17;31.77;;;12.50;99.90;;;;;;5249222;28;20239;-64
2021/10/19 13:07:48;;;;;;;53.17;31.03;;;12.50;99.90;;;;;;5249690;28;20655;-66